DW8626 Madrid ES current weather conditions

sailwx.info

Wind from 096

Air temperature 23.9° C
Dewpoint 13.4° C

Last reported at 2015-Jul-04 05:50 UTC.
Time now 2015-Jul-04 07:03 UTC

Location: N 40°29' W 003°43'.
View on Google Maps.

See reports from other nearby stations

  
Tides and Currents Weather Stations Pressure Air Temp Water Temp Dewpoint Dewpoint Depression Visibility Wind Speed Wind Dir Waves Ship Positions
date/time (UTC)wind fromknots sea level pressurealtimeterstation pressurevisibilityair tempwater tempwave heightnotes
2015-Jul-04 05:50 096 23.9
2015-Jul-04 05:35 101 23.9
2015-Jul-04 05:09 123 23.9
2015-Jul-04 04:50 176 23.3
2015-Jul-04 04:35 077 1 gusting 3 23.3
2015-Jul-04 04:20 091 23.9
2015-Jul-04 04:05 183 23.9
2015-Jul-04 03:50 050 0 gusting 1 23.9
2015-Jul-04 03:35 056 24.4
2015-Jul-04 03:20 083 24.4
2015-Jul-04 03:05 107 24.4
2015-Jul-04 02:51 125 0 gusting 3 25.0
2015-Jul-04 02:37 110 25.0
2015-Jul-04 02:20 099 5 gusting 8 25.6
2015-Jul-04 02:05 191 1 gusting 6 25.6
2015-Jul-04 01:50 090 5 gusting 12 25.6
2015-Jul-04 01:35 124 4 gusting 9 25.6
2015-Jul-04 01:20 206 8 gusting 13 26.1
2015-Jul-04 01:05 166 7 gusting 15 26.1
2015-Jul-04 00:50 195 5 gusting 13 26.7
2015-Jul-04 00:35 129 6 gusting 14 26.7
2015-Jul-04 00:21 117 8 gusting 15 27.2
2015-Jul-04 00:07 155 8 gusting 13 27.8
2015-Jul-03 23:50 101 6 gusting 16 28.3
2015-Jul-03 23:35 169 9 gusting 14 28.3
2015-Jul-03 23:20 153 6 gusting 11 28.9
2015-Jul-03 23:05 131 6 gusting 15 29.4
2015-Jul-03 22:50 108 4 gusting 12 30.0
2015-Jul-03 22:35 137 5 gusting 12 30.0
2015-Jul-03 22:20 165 4 gusting 7 30.0
2015-Jul-03 22:05 129 30.6
2015-Jul-03 21:52 094 0 gusting 6 30.6
2015-Jul-03 21:37 218 31.1
2015-Jul-03 21:20 226 0 gusting 2 31.7
2015-Jul-03 21:05 268 31.7
2015-Jul-03 20:50 108 4 gusting 6 31.7
2015-Jul-03 20:35 235 0 gusting 3 31.7
2015-Jul-03 20:20 240 32.2
2015-Jul-03 20:06 288 0 gusting 3 32.2
2015-Jul-03 19:35 197 33.3
2015-Jul-03 18:50 257 3 gusting 7 34.4
2015-Jul-03 18:36 127 6 gusting 11 34.4
2015-Jul-03 18:20 200 4 gusting 12 35.0
2015-Jul-03 18:05 211 3 gusting 11 35.6
2015-Jul-03 17:50 243 7 gusting 16 35.6
2015-Jul-03 17:35 208 6 gusting 13 35.6
2015-Jul-03 09:35 163 3 gusting 9 27.2
2015-Jul-03 09:20 162 3 gusting 8 27.2
2015-Jul-03 09:05 102 1 gusting 6 27.8
2015-Jul-03 08:49 222 1 gusting 5 27.2
2015-Jul-03 08:34 020 25.6
2015-Jul-03 08:19 132 0 gusting 8 25.6
2015-Jul-03 08:04 115 0 gusting 2 26.1
2015-Jul-03 07:49 082 0 gusting 5 25.0
2015-Jul-03 07:35 194 1 gusting 6 24.4
2015-Jul-03 07:20 117 1 gusting 6 24.4
2015-Jul-03 07:04 116 2 gusting 6 24.4
2015-Jul-03 06:49 162 2 gusting 6 23.9
2015-Jul-03 06:34 135 4 gusting 9 23.9
2015-Jul-03 06:19 079 2 gusting 8 23.3
2015-Jul-03 06:05 102 3 gusting 6 23.3
2015-Jul-03 05:50 096 2 gusting 6 23.3
2015-Jul-03 05:34 104 4 gusting 10 22.8
2015-Jul-03 05:19 114 6 gusting 8 22.8
2015-Jul-03 05:04 113 2 gusting 8 22.8
2015-Jul-03 04:49 105 22.8
2015-Jul-03 04:35 057 0 gusting 3 22.8
2015-Jul-03 04:20 057 23.3
2015-Jul-03 04:04 138 23.3
2015-Jul-03 03:49 114 0 gusting 6 23.3
2015-Jul-03 03:34 074 1 gusting 6 23.9
2015-Jul-03 03:20 093 3 gusting 6 23.9
2015-Jul-03 03:04 141 1 gusting 7 23.9
2015-Jul-03 02:49 099 2 gusting 8 23.9
2015-Jul-03 02:34 141 6 gusting 15 23.9
2015-Jul-03 02:20 160 6 gusting 15 24.4
2015-Jul-03 02:04 158 4 gusting 13 24.4
2015-Jul-03 01:49 057 3 gusting 12 25.0
2015-Jul-03 01:35 166 3 gusting 15 25.0
2015-Jul-03 01:19 163 7 gusting 14 25.6
2015-Jul-03 01:04 125 6 gusting 13 25.6
2015-Jul-03 00:50 156 6 gusting 16 25.6
2015-Jul-03 00:34 200 6 gusting 17 26.1
2015-Jul-03 00:19 158 10 gusting 16 26.1
2015-Jul-03 00:05 144 7 gusting 19 26.7
2015-Jul-02 23:49 136 8 gusting 19 26.7
2015-Jul-02 23:34 146 8 gusting 18 27.2
2015-Jul-02 23:19 148 6 gusting 15 27.8
2015-Jul-02 23:04 124 11 gusting 16 28.3
2015-Jul-02 22:50 115 6 gusting 13 28.9
2015-Jul-02 22:34 086 6 gusting 18 28.9
2015-Jul-02 22:19 060 28.9
2015-Jul-02 22:04 115 0 gusting 3 28.9
2015-Jul-02 21:50 082 0 gusting 1 29.4
2015-Jul-02 21:34 037 3 gusting 5 29.4
2015-Jul-02 21:19 030 3 gusting 4 29.4
2015-Jul-02 21:04 054 3 gusting 6 29.4
2015-Jul-02 20:50 053 5 gusting 6 30.0
2015-Jul-02 20:35 046 4 gusting 6 29.4
2015-Jul-02 20:19 356 3 gusting 5 30.0
2015-Jul-02 20:05 011 1 gusting 3 30.6
2015-Jul-02 19:49 243 31.1
2015-Jul-02 19:34 155 31.7
2015-Jul-02 19:19 131 32.2
2015-Jul-02 19:04 175 0 gusting 4 32.2
2015-Jul-02 18:49 194 3 gusting 7 32.2
2015-Jul-02 18:35 162 5 gusting 12 32.2
2015-Jul-02 18:19 207 1 gusting 5 32.2
2015-Jul-02 18:05 108 2 gusting 10 32.2
2015-Jul-02 17:50 197 3 gusting 5 32.2
2015-Jul-02 17:34 257 3 gusting 11 31.7
2015-Jul-02 17:19 274 4 gusting 9 31.7
2015-Jul-02 17:05 191 3 gusting 12 32.2
2015-Jul-02 16:49 255 1 gusting 10 32.2
2015-Jul-02 16:34 137 0 gusting 11 31.7
2015-Jul-02 16:19 231 2 gusting 8 32.2
2015-Jul-02 16:04 288 1 gusting 5 32.2
2015-Jul-02 15:49 222 0 gusting 9 31.7
2015-Jul-02 15:34 252 3 gusting 8 31.7
2015-Jul-02 15:20 203 6 gusting 13 31.7
2015-Jul-02 15:04 163 4 gusting 11 31.1
2015-Jul-02 14:49 145 3 gusting 10 31.1
2015-Jul-02 14:34 173 7 gusting 13 31.1
2015-Jul-02 14:20 213 6 gusting 13 31.7
2015-Jul-02 14:04 166 7 gusting 10 31.1
2015-Jul-02 13:50 206 5 gusting 12 30.6
2015-Jul-02 13:34 221 5 gusting 10 30.6
2015-Jul-02 13:19 176 2 gusting 7 30.6
2015-Jul-02 13:05 216 6 gusting 13 30.0
2015-Jul-02 12:49 172 6 gusting 10 29.4
2015-Jul-02 12:34 203 4 gusting 11 29.4
2015-Jul-02 12:19 204 4 gusting 10 29.4
2015-Jul-02 12:05 156 3 gusting 6 29.4
2015-Jul-02 11:49 226 4 gusting 10 28.9
2015-Jul-02 11:34 243 4 gusting 11 28.9
2015-Jul-02 11:19 166 6 gusting 10 28.9
2015-Jul-02 11:04 153 6 gusting 9 28.9
2015-Jul-02 10:49 136 1 gusting 10 28.3
2015-Jul-02 10:35 198 2 gusting 8 28.3
2015-Jul-02 10:20 267 3 gusting 8 27.8
2015-Jul-02 10:04 132 3 gusting 7 27.8
2015-Jul-02 09:49 253 3 gusting 9 26.7
2015-Jul-02 09:35 257 0 gusting 5 27.2
2015-Jul-02 09:19 131 4 gusting 8 27.2
2015-Jul-02 09:05 125 26.1
2015-Jul-02 08:34 307 25.0
2015-Jul-02 08:20 221 2 gusting 4 25.0
2015-Jul-02 08:04 145 0 gusting 3 25.6
2015-Jul-02 07:49 158 0 gusting 4 24.4
2015-Jul-02 07:34 006 23.3
2015-Jul-02 07:19 311 21.7
2015-Jul-02 07:04 246 21.7